sensor_id;sensor_type;location;lat;lon;timestamp;temperature;humidity
1702;DHT22;848;48.354;10.064;2024-03-29T00:01:15;5.70;99.90
1702;DHT22;848;48.354;10.064;2024-03-29T00:03:41;5.60;99.90
1702;DHT22;848;48.354;10.064;2024-03-29T00:06:07;5.60;99.90
1702;DHT22;848;48.354;10.064;2024-03-29T00:08:34;5.70;99.90
1702;DHT22;848;48.354;10.064;2024-03-29T00:11:00;5.80;99.90
1702;DHT22;848;48.354;10.064;2024-03-29T00:13:26;5.80;99.90
1702;DHT22;848;48.354;10.064;2024-03-29T00:15:52;5.90;99.90
1702;DHT22;848;48.354;10.064;2024-03-29T00:18:18;6.00;99.90
1702;DHT22;848;48.354;10.064;2024-03-29T00:20:44;5.90;99.90
1702;DHT22;848;48.354;10.064;2024-03-29T00:23:10;6.00;99.90
1702;DHT22;848;48.354;10.064;2024-03-29T00:25:37;6.10;99.90
1702;DHT22;848;48.354;10.064;2024-03-29T00:28:03;6.10;99.90
1702;DHT22;848;48.354;10.064;2024-03-29T00:30:29;6.00;99.90
1702;DHT22;848;48.354;10.064;2024-03-29T00:32:55;5.90;99.90
1702;DHT22;848;48.354;10.064;2024-03-29T00:35:21;6.00;99.90
1702;DHT22;848;48.354;10.064;2024-03-29T00:37:47;6.00;99.90
1702;DHT22;848;48.354;10.064;2024-03-29T00:40:13;5.90;99.90
1702;DHT22;848;48.354;10.064;2024-03-29T00:42:40;5.90;99.90
1702;DHT22;848;48.354;10.064;2024-03-29T00:45:07;5.90;99.90
1702;DHT22;848;48.354;10.064;2024-03-29T00:47:33;5.90;99.90
1702;DHT22;848;48.354;10.064;2024-03-29T00:50:00;5.60;99.90
1702;DHT22;848;48.354;10.064;2024-03-29T00:52:25;5.60;99.90
1702;DHT22;848;48.354;10.064;2024-03-29T00:54:51;5.70;99.90
1702;DHT22;848;48.354;10.064;2024-03-29T00:57:17;5.80;99.90
1702;DHT22;848;48.354;10.064;2024-03-29T00:59:45;5.80;99.90
1702;DHT22;848;48.354;10.064;2024-03-29T01:02:11;5.80;99.90
1702;DHT22;848;48.354;10.064;2024-03-29T01:04:37;5.60;99.90
1702;DHT22;848;48.354;10.064;2024-03-29T01:07:03;5.40;99.90
1702;DHT22;848;48.354;10.064;2024-03-29T01:09:29;5.20;99.90
1702;DHT22;848;48.354;10.064;2024-03-29T01:11:55;5.10;99.90
1702;DHT22;848;48.354;10.064;2024-03-29T01:14:56;5.20;99.90
1702;DHT22;848;48.354;10.064;2024-03-29T01:17:22;5.30;99.90
1702;DHT22;848;48.354;10.064;2024-03-29T01:19:48;5.10;99.90
1702;DHT22;848;48.354;10.064;2024-03-29T01:22:14;5.10;99.90
1702;DHT22;848;48.354;10.064;2024-03-29T01:24:39;5.10;99.90
1702;DHT22;848;48.354;10.064;2024-03-29T01:27:05;5.00;99.90
1702;DHT22;848;48.354;10.064;2024-03-29T01:29:32;5.10;99.90
1702;DHT22;848;48.354;10.064;2024-03-29T01:32:00;4.90;99.90
1702;DHT22;848;48.354;10.064;2024-03-29T01:34:26;4.90;99.90
1702;DHT22;848;48.354;10.064;2024-03-29T01:36:52;5.00;99.90
1702;DHT22;848;48.354;10.064;2024-03-29T01:39:18;4.90;99.90
1702;DHT22;848;48.354;10.064;2024-03-29T01:41:44;4.80;99.90
1702;DHT22;848;48.354;10.064;2024-03-29T01:44:10;4.80;99.90
1702;DHT22;848;48.354;10.064;2024-03-29T01:46:37;4.90;99.90
1702;DHT22;848;48.354;10.064;2024-03-29T01:49:06;4.90;99.90
1702;DHT22;848;48.354;10.064;2024-03-29T01:51:36;4.90;99.90
1702;DHT22;848;48.354;10.064;2024-03-29T01:54:04;4.80;99.90
1702;DHT22;848;48.354;10.064;2024-03-29T01:56:31;4.80;99.90
1702;DHT22;848;48.354;10.064;2024-03-29T01:58:59;4.80;99.90
1702;DHT22;848;48.354;10.064;2024-03-29T02:01:26;4.70;99.90
1702;DHT22;848;48.354;10.064;2024-03-29T02:03:54;4.80;99.90
1702;DHT22;848;48.354;10.064;2024-03-29T02:06:23;4.80;99.90
1702;DHT22;848;48.354;10.064;2024-03-29T02:08:52;4.90;99.90
1702;DHT22;848;48.354;10.064;2024-03-29T02:11:19;4.70;99.90
1702;DHT22;848;48.354;10.064;2024-03-29T02:13:46;4.50;99.90
1702;DHT22;848;48.354;10.064;2024-03-29T02:16:13;4.30;99.90
1702;DHT22;848;48.354;10.064;2024-03-29T02:18:40;4.30;99.90
1702;DHT22;848;48.354;10.064;2024-03-29T02:21:07;4.50;99.90
1702;DHT22;848;48.354;10.064;2024-03-29T02:23:37;4.50;99.90
1702;DHT22;848;48.354;10.064;2024-03-29T02:26:08;4.60;99.90
1702;DHT22;848;48.354;10.064;2024-03-29T02:28:35;4.60;99.90
1702;DHT22;848;48.354;10.064;2024-03-29T02:31:02;4.60;99.90
1702;DHT22;848;48.354;10.064;2024-03-29T02:33:29;4.80;99.90
1702;DHT22;848;48.354;10.064;2024-03-29T02:35:56;4.90;99.90
1702;DHT22;848;48.354;10.064;2024-03-29T02:38:23;4.90;99.90
1702;DHT22;848;48.354;10.064;2024-03-29T02:40:50;4.80;99.90
1702;DHT22;848;48.354;10.064;2024-03-29T02:43:18;4.80;99.90
1702;DHT22;848;48.354;10.064;2024-03-29T02:45:45;4.80;99.90
1702;DHT22;848;48.354;10.064;2024-03-29T02:48:11;4.90;99.90
1702;DHT22;848;48.354;10.064;2024-03-29T02:50:38;4.70;99.90
1702;DHT22;848;48.354;10.064;2024-03-29T02:53:04;4.70;99.90
1702;DHT22;848;48.354;10.064;2024-03-29T02:55:31;4.60;99.90
1702;DHT22;848;48.354;10.064;2024-03-29T02:57:57;4.50;99.90
1702;DHT22;848;48.354;10.064;2024-03-29T03:00:25;4.50;99.90
1702;DHT22;848;48.354;10.064;2024-03-29T03:02:51;4.50;99.90
1702;DHT22;848;48.354;10.064;2024-03-29T03:05:17;4.50;99.90
1702;DHT22;848;48.354;10.064;2024-03-29T03:07:43;4.50;99.90
1702;DHT22;848;48.354;10.064;2024-03-29T03:10:28;4.50;99.90
1702;DHT22;848;48.354;10.064;2024-03-29T03:13:12;4.50;99.90
1702;DHT22;848;48.354;10.064;2024-03-29T03:15:40;4.40;99.90
1702;DHT22;848;48.354;10.064;2024-03-29T03:18:07;4.50;99.90
1702;DHT22;848;48.354;10.064;2024-03-29T03:20:33;4.60;99.90
1702;DHT22;848;48.354;10.064;2024-03-29T03:23:00;4.60;99.90
1702;DHT22;848;48.354;10.064;2024-03-29T03:25:27;4.40;99.90
1702;DHT22;848;48.354;10.064;2024-03-29T03:27:53;4.40;99.90
1702;DHT22;848;48.354;10.064;2024-03-29T03:30:20;4.40;99.90
1702;DHT22;848;48.354;10.064;2024-03-29T03:32:47;4.50;99.90
1702;DHT22;848;48.354;10.064;2024-03-29T03:35:14;4.60;99.90
1702;DHT22;848;48.354;10.064;2024-03-29T03:37:40;4.60;99.90
1702;DHT22;848;48.354;10.064;2024-03-29T03:40:08;4.80;99.90
1702;DHT22;848;48.354;10.064;2024-03-29T03:42:34;4.90;99.90
1702;DHT22;848;48.354;10.064;2024-03-29T03:45:01;4.80;99.90
1702;DHT22;848;48.354;10.064;2024-03-29T03:47:26;4.80;99.90
1702;DHT22;848;48.354;10.064;2024-03-29T03:49:55;4.80;99.90
1702;DHT22;848;48.354;10.064;2024-03-29T03:52:20;4.80;99.90
1702;DHT22;848;48.354;10.064;2024-03-29T03:54:47;4.80;99.90
1702;DHT22;848;48.354;10.064;2024-03-29T03:57:13;4.80;99.90
1702;DHT22;848;48.354;10.064;2024-03-29T03:59:40;4.90;99.90
1702;DHT22;848;48.354;10.064;2024-03-29T04:02:06;4.80;99.90
1702;DHT22;848;48.354;10.064;2024-03-29T04:04:33;4.70;99.90
1702;DHT22;848;48.354;10.064;2024-03-29T04:07:00;4.70;99.90
1702;DHT22;848;48.354;10.064;2024-03-29T04:09:27;4.70;99.90
1702;DHT22;848;48.354;10.064;2024-03-29T04:11:53;4.50;99.90
1702;DHT22;848;48.354;10.064;2024-03-29T04:14:20;4.50;99.90
1702;DHT22;848;48.354;10.064;2024-03-29T04:16:46;4.40;99.90
1702;DHT22;848;48.354;10.064;2024-03-29T04:19:13;4.40;99.90
1702;DHT22;848;48.354;10.064;2024-03-29T04:21:39;4.40;99.90
1702;DHT22;848;48.354;10.064;2024-03-29T04:24:07;4.50;99.90
1702;DHT22;848;48.354;10.064;2024-03-29T04:26:35;4.40;99.90
1702;DHT22;848;48.354;10.064;2024-03-29T04:29:02;4.40;99.90
1702;DHT22;848;48.354;10.064;2024-03-29T04:31:29;4.50;99.90
1702;DHT22;848;48.354;10.064;2024-03-29T04:33:55;4.40;99.90
1702;DHT22;848;48.354;10.064;2024-03-29T04:36:22;4.40;99.90
1702;DHT22;848;48.354;10.064;2024-03-29T04:38:48;4.60;99.90
1702;DHT22;848;48.354;10.064;2024-03-29T04:41:17;4.70;99.90
1702;DHT22;848;48.354;10.064;2024-03-29T04:43:44;4.80;99.90
1702;DHT22;848;48.354;10.064;2024-03-29T04:46:12;4.90;99.90
1702;DHT22;848;48.354;10.064;2024-03-29T04:48:39;5.00;99.90
1702;DHT22;848;48.354;10.064;2024-03-29T04:51:07;5.00;99.90
1702;DHT22;848;48.354;10.064;2024-03-29T04:53:35;5.00;99.90
1702;DHT22;848;48.354;10.064;2024-03-29T04:56:03;5.10;99.90
1702;DHT22;848;48.354;10.064;2024-03-29T04:58:31;5.00;99.90
1702;DHT22;848;48.354;10.064;2024-03-29T05:00:58;5.10;99.90
1702;DHT22;848;48.354;10.064;2024-03-29T05:03:25;5.10;99.90
1702;DHT22;848;48.354;10.064;2024-03-29T05:05:53;5.20;99.90
1702;DHT22;848;48.354;10.064;2024-03-29T05:08:20;5.20;99.90
1702;DHT22;848;48.354;10.064;2024-03-29T05:10:48;5.20;99.90
1702;DHT22;848;48.354;10.064;2024-03-29T05:13:15;5.20;99.90
1702;DHT22;848;48.354;10.064;2024-03-29T05:15:44;5.20;99.90
1702;DHT22;848;48.354;10.064;2024-03-29T05:18:11;5.20;99.90
1702;DHT22;848;48.354;10.064;2024-03-29T05:21:46;5.20;99.90
1702;DHT22;848;48.354;10.064;2024-03-29T05:24:13;5.30;99.90
1702;DHT22;848;48.354;10.064;2024-03-29T05:26:40;5.20;99.90
1702;DHT22;848;48.354;10.064;2024-03-29T05:29:07;5.10;99.90
1702;DHT22;848;48.354;10.064;2024-03-29T05:31:34;5.00;99.90
1702;DHT22;848;48.354;10.064;2024-03-29T05:34:01;5.00;99.90
1702;DHT22;848;48.354;10.064;2024-03-29T05:36:28;5.00;99.90
1702;DHT22;848;48.354;10.064;2024-03-29T05:38:56;5.20;99.90
1702;DHT22;848;48.354;10.064;2024-03-29T05:41:23;5.10;99.90
1702;DHT22;848;48.354;10.064;2024-03-29T05:43:50;5.20;99.90
1702;DHT22;848;48.354;10.064;2024-03-29T05:46:17;5.10;99.90
1702;DHT22;848;48.354;10.064;2024-03-29T05:48:44;5.20;99.90
1702;DHT22;848;48.354;10.064;2024-03-29T05:51:11;5.30;99.90
1702;DHT22;848;48.354;10.064;2024-03-29T05:53:38;5.40;99.90
1702;DHT22;848;48.354;10.064;2024-03-29T05:56:07;5.40;99.90
1702;DHT22;848;48.354;10.064;2024-03-29T05:58:34;5.70;99.90
1702;DHT22;848;48.354;10.064;2024-03-29T06:01:01;5.70;99.90
1702;DHT22;848;48.354;10.064;2024-03-29T06:03:28;5.60;99.90
1702;DHT22;848;48.354;10.064;2024-03-29T06:05:55;5.70;99.90
1702;DHT22;848;48.354;10.064;2024-03-29T06:08:22;5.80;99.90
1702;DHT22;848;48.354;10.064;2024-03-29T06:10:51;5.80;99.90
1702;DHT22;848;48.354;10.064;2024-03-29T06:13:20;5.90;99.90
1702;DHT22;848;48.354;10.064;2024-03-29T06:16:14;5.80;99.90
1702;DHT22;848;48.354;10.064;2024-03-29T06:18:59;5.80;99.90
1702;DHT22;848;48.354;10.064;2024-03-29T06:21:26;6.00;99.90
1702;DHT22;848;48.354;10.064;2024-03-29T06:23:53;6.00;99.90
1702;DHT22;848;48.354;10.064;2024-03-29T06:26:20;6.00;99.90
1702;DHT22;848;48.354;10.064;2024-03-29T06:28:48;6.10;99.90
1702;DHT22;848;48.354;10.064;2024-03-29T06:31:15;6.10;99.90
1702;DHT22;848;48.354;10.064;2024-03-29T06:33:42;6.10;99.90
1702;DHT22;848;48.354;10.064;2024-03-29T06:36:09;6.20;99.90
1702;DHT22;848;48.354;10.064;2024-03-29T06:38:36;6.30;99.90
1702;DHT22;848;48.354;10.064;2024-03-29T06:41:03;6.40;99.90
1702;DHT22;848;48.354;10.064;2024-03-29T06:43:30;6.40;99.90
1702;DHT22;848;48.354;10.064;2024-03-29T06:45:58;6.40;99.90
1702;DHT22;848;48.354;10.064;2024-03-29T06:48:25;6.40;99.90
1702;DHT22;848;48.354;10.064;2024-03-29T06:50:52;6.40;99.90
1702;DHT22;848;48.354;10.064;2024-03-29T06:53:18;6.40;99.90
1702;DHT22;848;48.354;10.064;2024-03-29T06:55:46;6.50;99.90
1702;DHT22;848;48.354;10.064;2024-03-29T06:58:14;6.70;99.90
1702;DHT22;848;48.354;10.064;2024-03-29T07:00:43;6.70;99.90
1702;DHT22;848;48.354;10.064;2024-03-29T07:03:11;6.80;99.90
1702;DHT22;848;48.354;10.064;2024-03-29T07:05:38;6.90;99.90
1702;DHT22;848;48.354;10.064;2024-03-29T07:08:05;6.80;99.90
1702;DHT22;848;48.354;10.064;2024-03-29T07:10:32;6.80;99.90
1702;DHT22;848;48.354;10.064;2024-03-29T07:13:00;6.90;99.90
1702;DHT22;848;48.354;10.064;2024-03-29T07:15:27;6.90;99.90
1702;DHT22;848;48.354;10.064;2024-03-29T07:17:53;7.00;99.90
1702;DHT22;848;48.354;10.064;2024-03-29T07:20:25;7.10;99.90
1702;DHT22;848;48.354;10.064;2024-03-29T07:22:52;7.10;99.90
1702;DHT22;848;48.354;10.064;2024-03-29T07:25:19;7.10;99.90
1702;DHT22;848;48.354;10.064;2024-03-29T07:27:52;7.10;99.90
1702;DHT22;848;48.354;10.064;2024-03-29T07:30:31;6.90;99.90
1702;DHT22;848;48.354;10.064;2024-03-29T07:33:20;6.80;99.90
1702;DHT22;848;48.354;10.064;2024-03-29T07:36:08;6.70;99.90
1702;DHT22;848;48.354;10.064;2024-03-29T07:38:37;6.80;99.90
1702;DHT22;848;48.354;10.064;2024-03-29T07:41:05;6.80;99.90
1702;DHT22;848;48.354;10.064;2024-03-29T07:43:38;6.70;99.90
1702;DHT22;848;48.354;10.064;2024-03-29T07:46:05;6.70;99.90
1702;DHT22;848;48.354;10.064;2024-03-29T07:48:34;6.70;99.90
1702;DHT22;848;48.354;10.064;2024-03-29T07:51:01;7.20;99.90
1702;DHT22;848;48.354;10.064;2024-03-29T07:53:29;7.30;99.90
1702;DHT22;848;48.354;10.064;2024-03-29T07:55:56;7.40;99.90
1702;DHT22;848;48.354;10.064;2024-03-29T07:58:23;7.60;99.90
1702;DHT22;848;48.354;10.064;2024-03-29T08:00:52;7.90;99.90
1702;DHT22;848;48.354;10.064;2024-03-29T08:03:19;8.30;99.90
1702;DHT22;848;48.354;10.064;2024-03-29T08:05:57;8.70;99.90
1702;DHT22;848;48.354;10.064;2024-03-29T08:08:31;8.80;99.90
1702;DHT22;848;48.354;10.064;2024-03-29T08:11:15;9.00;99.90
1702;DHT22;848;48.354;10.064;2024-03-29T08:13:48;9.20;99.90
1702;DHT22;848;48.354;10.064;2024-03-29T08:17:01;9.30;99.90
1702;DHT22;848;48.354;10.064;2024-03-29T08:19:45;9.40;99.90
1702;DHT22;848;48.354;10.064;2024-03-29T08:22:39;9.40;99.90
1702;DHT22;848;48.354;10.064;2024-03-29T08:25:31;9.80;99.90
1702;DHT22;848;48.354;10.064;2024-03-29T08:28:01;10.20;99.90
1702;DHT22;848;48.354;10.064;2024-03-29T08:30:28;10.70;99.90
1702;DHT22;848;48.354;10.064;2024-03-29T08:33:05;10.30;99.90
1702;DHT22;848;48.354;10.064;2024-03-29T08:35:33;10.20;99.90
1702;DHT22;848;48.354;10.064;2024-03-29T08:38:00;10.20;99.90
1702;DHT22;848;48.354;10.064;2024-03-29T08:40:29;10.30;99.90
1702;DHT22;848;48.354;10.064;2024-03-29T08:42:57;10.40;99.90
1702;DHT22;848;48.354;10.064;2024-03-29T08:45:24;10.30;99.90
1702;DHT22;848;48.354;10.064;2024-03-29T08:47:51;10.40;99.90
1702;DHT22;848;48.354;10.064;2024-03-29T08:50:18;10.30;99.90
1702;DHT22;848;48.354;10.064;2024-03-29T08:52:45;10.10;99.90
1702;DHT22;848;48.354;10.064;2024-03-29T08:55:12;10.00;99.90
1702;DHT22;848;48.354;10.064;2024-03-29T08:57:41;10.10;99.90
1702;DHT22;848;48.354;10.064;2024-03-29T09:00:23;10.00;99.90
1702;DHT22;848;48.354;10.064;2024-03-29T09:02:58;10.00;99.90
1702;DHT22;848;48.354;10.064;2024-03-29T09:05:32;10.10;99.90
1702;DHT22;848;48.354;10.064;2024-03-29T09:08:16;10.10;99.90
1702;DHT22;848;48.354;10.064;2024-03-29T09:10:43;10.10;99.90
1702;DHT22;848;48.354;10.064;2024-03-29T09:13:12;10.20;99.90
1702;DHT22;848;48.354;10.064;2024-03-29T09:15:39;10.30;99.90
1702;DHT22;848;48.354;10.064;2024-03-29T09:18:06;10.40;99.90
1702;DHT22;848;48.354;10.064;2024-03-29T09:20:42;10.50;99.90
1702;DHT22;848;48.354;10.064;2024-03-29T09:23:09;10.60;99.90
1702;DHT22;848;48.354;10.064;2024-03-29T09:25:39;10.70;99.90
1702;DHT22;848;48.354;10.064;2024-03-29T09:28:06;10.80;99.90
1702;DHT22;848;48.354;10.064;2024-03-29T09:30:37;10.90;99.90
1702;DHT22;848;48.354;10.064;2024-03-29T09:33:04;11.00;99.90
1702;DHT22;848;48.354;10.064;2024-03-29T09:35:32;11.10;99.90
1702;DHT22;848;48.354;10.064;2024-03-29T09:37:59;11.20;99.90
1702;DHT22;848;48.354;10.064;2024-03-29T09:40:26;11.20;99.90
1702;DHT22;848;48.354;10.064;2024-03-29T09:42:55;11.20;99.90
1702;DHT22;848;48.354;10.064;2024-03-29T09:45:28;11.30;99.90
1702;DHT22;848;48.354;10.064;2024-03-29T09:48:01;11.40;99.90
1702;DHT22;848;48.354;10.064;2024-03-29T09:50:28;11.40;99.90
1702;DHT22;848;48.354;10.064;2024-03-29T09:52:56;11.40;99.90
1702;DHT22;848;48.354;10.064;2024-03-29T09:55:25;11.30;99.90
1702;DHT22;848;48.354;10.064;2024-03-29T09:57:51;11.20;99.90
1702;DHT22;848;48.354;10.064;2024-03-29T10:00:18;11.20;99.90
1702;DHT22;848;48.354;10.064;2024-03-29T10:02:46;11.10;99.90
1702;DHT22;848;48.354;10.064;2024-03-29T10:05:17;10.90;99.90
1702;DHT22;848;48.354;10.064;2024-03-29T10:07:45;10.80;99.90
1702;DHT22;848;48.354;10.064;2024-03-29T10:10:13;10.80;99.90
1702;DHT22;848;48.354;10.064;2024-03-29T10:12:40;10.80;99.90
1702;DHT22;848;48.354;10.064;2024-03-29T10:15:07;10.80;99.90
1702;DHT22;848;48.354;10.064;2024-03-29T10:17:40;10.90;99.90
1702;DHT22;848;48.354;10.064;2024-03-29T10:20:11;10.90;99.90
1702;DHT22;848;48.354;10.064;2024-03-29T10:22:42;11.00;99.90
1702;DHT22;848;48.354;10.064;2024-03-29T10:25:10;11.00;99.90
1702;DHT22;848;48.354;10.064;2024-03-29T10:27:37;11.00;99.90
1702;DHT22;848;48.354;10.064;2024-03-29T10:30:05;10.90;99.90
1702;DHT22;848;48.354;10.064;2024-03-29T10:32:32;10.90;99.90
1702;DHT22;848;48.354;10.064;2024-03-29T10:34:58;10.90;99.90
1702;DHT22;848;48.354;10.064;2024-03-29T10:37:28;11.00;99.90
1702;DHT22;848;48.354;10.064;2024-03-29T10:40:00;10.90;99.90
1702;DHT22;848;48.354;10.064;2024-03-29T10:42:28;10.90;99.90
1702;DHT22;848;48.354;10.064;2024-03-29T10:44:56;10.90;99.90
1702;DHT22;848;48.354;10.064;2024-03-29T10:47:24;10.90;99.90
1702;DHT22;848;48.354;10.064;2024-03-29T10:49:53;10.80;99.90
1702;DHT22;848;48.354;10.064;2024-03-29T10:52:21;10.70;99.90
1702;DHT22;848;48.354;10.064;2024-03-29T10:54:49;10.70;99.90
1702;DHT22;848;48.354;10.064;2024-03-29T10:57:22;10.80;99.90
1702;DHT22;848;48.354;10.064;2024-03-29T10:59:57;10.80;99.90
1702;DHT22;848;48.354;10.064;2024-03-29T11:02:33;10.90;99.90
1702;DHT22;848;48.354;10.064;2024-03-29T11:05:05;10.90;99.90
1702;DHT22;848;48.354;10.064;2024-03-29T11:07:34;10.90;99.90
1702;DHT22;848;48.354;10.064;2024-03-29T11:10:02;10.90;99.90
1702;DHT22;848;48.354;10.064;2024-03-29T11:12:39;11.00;99.90
1702;DHT22;848;48.354;10.064;2024-03-29T11:15:14;11.10;99.90
1702;DHT22;848;48.354;10.064;2024-03-29T11:17:42;11.20;99.90
1702;DHT22;848;48.354;10.064;2024-03-29T11:23:03;11.30;99.90
1702;DHT22;848;48.354;10.064;2024-03-29T11:25:39;11.20;99.90
1702;DHT22;848;48.354;10.064;2024-03-29T11:28:06;11.20;99.90
1702;DHT22;848;48.354;10.064;2024-03-29T11:30:40;11.40;99.90
1702;DHT22;848;48.354;10.064;2024-03-29T11:33:07;11.40;99.90
1702;DHT22;848;48.354;10.064;2024-03-29T11:35:39;11.50;99.90
1702;DHT22;848;48.354;10.064;2024-03-29T11:38:08;11.60;99.90
1702;DHT22;848;48.354;10.064;2024-03-29T11:40:34;11.70;99.90
1702;DHT22;848;48.354;10.064;2024-03-29T11:43:01;11.70;99.90
1702;DHT22;848;48.354;10.064;2024-03-29T11:45:31;11.80;99.90
1702;DHT22;848;48.354;10.064;2024-03-29T11:48:02;11.70;99.90
1702;DHT22;848;48.354;10.064;2024-03-29T11:50:32;11.70;99.90
1702;DHT22;848;48.354;10.064;2024-03-29T11:53:02;11.80;99.90
1702;DHT22;848;48.354;10.064;2024-03-29T11:55:30;11.80;99.90
1702;DHT22;848;48.354;10.064;2024-03-29T11:57:59;11.90;99.90
1702;DHT22;848;48.354;10.064;2024-03-29T12:00:26;12.10;99.90
1702;DHT22;848;48.354;10.064;2024-03-29T12:02:55;12.10;99.90
1702;DHT22;848;48.354;10.064;2024-03-29T12:05:22;12.20;99.90
1702;DHT22;848;48.354;10.064;2024-03-29T12:07:49;12.40;99.90
1702;DHT22;848;48.354;10.064;2024-03-29T12:10:17;12.50;99.90
1702;DHT22;848;48.354;10.064;2024-03-29T12:12:45;12.60;99.90
1702;DHT22;848;48.354;10.064;2024-03-29T12:15:13;12.60;99.90
1702;DHT22;848;48.354;10.064;2024-03-29T12:17:40;12.60;99.90
1702;DHT22;848;48.354;10.064;2024-03-29T12:20:09;12.60;99.90
1702;DHT22;848;48.354;10.064;2024-03-29T12:22:37;12.70;99.90
1702;DHT22;848;48.354;10.064;2024-03-29T12:25:05;12.80;99.90
1702;DHT22;848;48.354;10.064;2024-03-29T12:27:32;12.70;99.90
1702;DHT22;848;48.354;10.064;2024-03-29T12:30:00;12.80;99.90
1702;DHT22;848;48.354;10.064;2024-03-29T12:32:27;12.90;99.90
1702;DHT22;848;48.354;10.064;2024-03-29T12:34:55;12.90;99.90
1702;DHT22;848;48.354;10.064;2024-03-29T12:37:22;13.00;99.90
1702;DHT22;848;48.354;10.064;2024-03-29T12:39:51;13.10;99.90
1702;DHT22;848;48.354;10.064;2024-03-29T12:42:21;13.10;99.90
1702;DHT22;848;48.354;10.064;2024-03-29T12:44:48;13.20;99.90
1702;DHT22;848;48.354;10.064;2024-03-29T12:47:16;13.30;99.90
1702;DHT22;848;48.354;10.064;2024-03-29T12:49:43;13.40;99.90
1702;DHT22;848;48.354;10.064;2024-03-29T12:52:10;13.50;99.90
1702;DHT22;848;48.354;10.064;2024-03-29T12:54:37;13.60;99.90
1702;DHT22;848;48.354;10.064;2024-03-29T12:57:04;13.60;99.90
1702;DHT22;848;48.354;10.064;2024-03-29T12:59:33;13.60;99.90
1702;DHT22;848;48.354;10.064;2024-03-29T13:02:00;13.60;99.90
1702;DHT22;848;48.354;10.064;2024-03-29T13:04:30;13.70;99.90
1702;DHT22;848;48.354;10.064;2024-03-29T13:06:57;13.70;99.90
1702;DHT22;848;48.354;10.064;2024-03-29T13:09:24;13.70;99.90
1702;DHT22;848;48.354;10.064;2024-03-29T13:11:51;13.80;99.90
1702;DHT22;848;48.354;10.064;2024-03-29T13:14:18;13.80;99.90
1702;DHT22;848;48.354;10.064;2024-03-29T13:16:45;13.90;99.90
1702;DHT22;848;48.354;10.064;2024-03-29T13:19:12;13.90;99.90
1702;DHT22;848;48.354;10.064;2024-03-29T13:21:40;14.00;99.90
1702;DHT22;848;48.354;10.064;2024-03-29T13:24:07;14.10;99.90
1702;DHT22;848;48.354;10.064;2024-03-29T13:26:34;14.10;99.90
1702;DHT22;848;48.354;10.064;2024-03-29T13:29:01;14.10;99.90
1702;DHT22;848;48.354;10.064;2024-03-29T13:31:28;14.20;99.90
1702;DHT22;848;48.354;10.064;2024-03-29T13:33:55;14.30;99.90
1702;DHT22;848;48.354;10.064;2024-03-29T13:36:29;14.30;99.90
1702;DHT22;848;48.354;10.064;2024-03-29T13:38:57;14.40;99.90
1702;DHT22;848;48.354;10.064;2024-03-29T13:41:24;14.50;99.90
1702;DHT22;848;48.354;10.064;2024-03-29T13:43:51;14.50;99.90
1702;DHT22;848;48.354;10.064;2024-03-29T13:46:18;14.50;99.90
1702;DHT22;848;48.354;10.064;2024-03-29T13:48:46;14.50;99.90
1702;DHT22;848;48.354;10.064;2024-03-29T13:51:13;14.50;99.90
1702;DHT22;848;48.354;10.064;2024-03-29T13:53:42;14.60;99.90
1702;DHT22;848;48.354;10.064;2024-03-29T13:56:10;14.60;99.90
1702;DHT22;848;48.354;10.064;2024-03-29T13:58:37;14.60;99.90
1702;DHT22;848;48.354;10.064;2024-03-29T14:01:04;14.60;99.90
1702;DHT22;848;48.354;10.064;2024-03-29T14:03:31;14.70;99.90
1702;DHT22;848;48.354;10.064;2024-03-29T14:05:58;14.70;99.90
1702;DHT22;848;48.354;10.064;2024-03-29T14:08:24;14.70;99.90
1702;DHT22;848;48.354;10.064;2024-03-29T14:10:51;14.70;99.90
1702;DHT22;848;48.354;10.064;2024-03-29T14:13:20;14.80;99.90
1702;DHT22;848;48.354;10.064;2024-03-29T14:15:47;14.80;99.90
1702;DHT22;848;48.354;10.064;2024-03-29T14:18:13;14.90;99.90
1702;DHT22;848;48.354;10.064;2024-03-29T14:20:40;14.90;99.90
1702;DHT22;848;48.354;10.064;2024-03-29T14:23:07;14.90;99.90
1702;DHT22;848;48.354;10.064;2024-03-29T14:25:38;15.00;99.90
1702;DHT22;848;48.354;10.064;2024-03-29T14:28:05;15.00;99.90
1702;DHT22;848;48.354;10.064;2024-03-29T14:30:34;15.00;99.90
1702;DHT22;848;48.354;10.064;2024-03-29T14:33:01;15.10;99.90
1702;DHT22;848;48.354;10.064;2024-03-29T14:35:32;15.00;99.90
1702;DHT22;848;48.354;10.064;2024-03-29T14:37:58;15.00;99.90
1702;DHT22;848;48.354;10.064;2024-03-29T14:40:26;15.10;99.90
1702;DHT22;848;48.354;10.064;2024-03-29T14:42:53;15.10;99.90
1702;DHT22;848;48.354;10.064;2024-03-29T14:45:21;15.20;99.90
1702;DHT22;848;48.354;10.064;2024-03-29T14:47:49;15.30;99.90
1702;DHT22;848;48.354;10.064;2024-03-29T14:50:16;15.20;99.90
1702;DHT22;848;48.354;10.064;2024-03-29T14:52:44;15.20;99.90
1702;DHT22;848;48.354;10.064;2024-03-29T14:55:11;15.20;99.90
1702;DHT22;848;48.354;10.064;2024-03-29T14:57:38;15.10;99.90
1702;DHT22;848;48.354;10.064;2024-03-29T15:00:06;15.20;99.90
1702;DHT22;848;48.354;10.064;2024-03-29T15:02:34;15.20;99.90
1702;DHT22;848;48.354;10.064;2024-03-29T15:05:02;15.20;99.90
1702;DHT22;848;48.354;10.064;2024-03-29T15:07:31;15.20;99.90
1702;DHT22;848;48.354;10.064;2024-03-29T15:09:58;15.20;99.90
1702;DHT22;848;48.354;10.064;2024-03-29T15:12:26;15.20;99.90
1702;DHT22;848;48.354;10.064;2024-03-29T15:14:53;15.20;99.90
1702;DHT22;848;48.354;10.064;2024-03-29T15:17:20;15.30;99.90
1702;DHT22;848;48.354;10.064;2024-03-29T15:19:47;15.20;99.90
1702;DHT22;848;48.354;10.064;2024-03-29T15:22:17;15.20;99.90
1702;DHT22;848;48.354;10.064;2024-03-29T15:24:44;15.20;99.90
1702;DHT22;848;48.354;10.064;2024-03-29T15:27:11;15.20;99.90
1702;DHT22;848;48.354;10.064;2024-03-29T15:29:54;15.10;99.90
1702;DHT22;848;48.354;10.064;2024-03-29T15:32:21;15.10;99.90
1702;DHT22;848;48.354;10.064;2024-03-29T15:34:48;14.80;99.90
1702;DHT22;848;48.354;10.064;2024-03-29T15:37:17;15.50;99.90
1702;DHT22;848;48.354;10.064;2024-03-29T15:39:45;15.10;99.90
1702;DHT22;848;48.354;10.064;2024-03-29T15:42:12;15.00;99.90
1702;DHT22;848;48.354;10.064;2024-03-29T15:44:39;15.00;99.90
1702;DHT22;848;48.354;10.064;2024-03-29T15:47:05;14.90;99.90
1702;DHT22;848;48.354;10.064;2024-03-29T15:49:32;14.90;99.90
1702;DHT22;848;48.354;10.064;2024-03-29T15:51:59;14.90;99.90
1702;DHT22;848;48.354;10.064;2024-03-29T15:54:27;14.90;99.90
1702;DHT22;848;48.354;10.064;2024-03-29T15:56:54;14.90;99.90
1702;DHT22;848;48.354;10.064;2024-03-29T15:59:21;14.90;99.90
1702;DHT22;848;48.354;10.064;2024-03-29T16:01:49;14.80;99.90
1702;DHT22;848;48.354;10.064;2024-03-29T16:04:16;14.80;99.90
1702;DHT22;848;48.354;10.064;2024-03-29T16:06:43;14.80;99.90
1702;DHT22;848;48.354;10.064;2024-03-29T16:09:10;14.80;99.90
1702;DHT22;848;48.354;10.064;2024-03-29T16:11:39;14.80;99.90
1702;DHT22;848;48.354;10.064;2024-03-29T16:14:06;14.70;99.90
1702;DHT22;848;48.354;10.064;2024-03-29T16:16:33;14.70;99.90
1702;DHT22;848;48.354;10.064;2024-03-29T16:19:00;14.70;99.90
1702;DHT22;848;48.354;10.064;2024-03-29T16:21:26;14.60;99.90